METAR Formatted Surface Weather Observation
Issued by NWS

Home | Current Version | Previous Version | Text Only | Print | Product List | Glossary On
Versions: 1 2
674
SAUS41 KGYX 011759 COR
MTRNKT
METAR KNKT 011754Z 21021G35KT 9SM BKN014 BKN019 OVC032 23/19 A2998
RMK AO2 PK WND 22037/1657 SLP148 T02330189 10239 20206 56019



USA.gov is the U.S. government's official web portal to all federal, state and local government web resources and services.